Time;durP1;ratioP1;P1;durP2;ratioP2;P2;SDS_P1;SDS_P2;PMS_P1;PMS_P2;Temp;Humidity;BMP_temperature;BMP_pressure;BME280_temperature;BME280_humidity;BME280_pressure;Samples;Min_cycle;Max_cycle;Signal;HPM_P1;HPM_P2
2023/09/25 00:00:00;;;;;;;2.70;1.90;;;;;;;15.54;60.33;102040.72;5093936;28;20027;-69
2023/09/25 00:02:26;;;;;;;3.55;1.90;;;;;;;15.47;60.53;102038.09;5092882;28;20386;-69
2023/09/25 00:04:52;;;;;;;2.08;1.88;;;;;;;15.49;60.90;102048.22;5097354;28;20046;-69
2023/09/25 00:07:18;;;;;;;2.95;2.10;;;;;;;15.47;60.82;102037.28;5090911;28;20028;-69
2023/09/25 00:09:44;;;;;;;4.85;2.08;;;;;;;15.39;60.99;102055.34;5111213;28;20027;-69
2023/09/25 00:12:09;;;;;;;3.30;2.17;;;;;;;15.44;61.05;102040.56;5110402;28;20231;-69
2023/09/25 00:14:34;;;;;;;2.85;2.10;;;;;;;15.39;60.99;102051.69;5108650;28;20114;-69
2023/09/25 00:17:00;;;;;;;3.92;2.13;;;;;;;15.35;61.25;102045.75;5092044;28;20110;-70
2023/09/25 00:19:25;;;;;;;7.43;2.20;;;;;;;15.30;61.40;102045.69;5089640;28;20048;-69
2023/09/25 00:21:50;;;;;;;3.22;2.20;;;;;;;15.27;61.52;102053.75;5093286;28;20490;-68
2023/09/25 00:24:16;;;;;;;3.75;1.95;;;;;;;15.26;61.44;102052.91;5088838;28;20039;-69
2023/09/25 00:26:47;;;;;;;4.60;2.15;;;;;;;15.18;61.75;102045.78;5095935;28;20023;-69
2023/09/25 00:29:14;;;;;;;4.05;2.00;;;;;;;15.16;61.59;102053.56;5090695;28;20028;-69
2023/09/25 00:31:39;;;;;;;2.85;1.88;;;;;;;15.17;61.34;102051.66;5097973;28;20027;-69
2023/09/25 00:34:04;;;;;;;4.00;2.03;;;;;;;15.12;61.40;102040.34;5104395;28;20693;-69
2023/09/25 00:36:29;;;;;;;3.95;2.30;;;;;;;15.10;61.62;102050.97;5109149;28;20055;-69
2023/09/25 00:38:55;;;;;;;2.75;1.98;;;;;;;15.11;61.18;102044.25;5096588;28;20024;-69
2023/09/25 00:41:20;;;;;;;3.15;2.03;;;;;;;15.08;61.39;102047.56;5089154;28;20438;-69
2023/09/25 00:43:45;;;;;;;3.35;2.13;;;;;;;15.07;61.31;102043.06;5089722;28;20123;-68
2023/09/25 00:46:11;;;;;;;4.95;2.40;;;;;;;15.08;61.34;102053.16;5089323;28;20024;-69
2023/09/25 00:48:42;;;;;;;2.67;1.92;;;;;;;15.03;61.27;102055.88;5089106;28;20043;-68
2023/09/25 00:51:11;;;;;;;3.28;2.05;;;;;;;15.05;61.70;102056.44;5092888;28;20020;-69
2023/09/25 00:53:37;;;;;;;3.60;2.00;;;;;;;15.05;61.40;102050.84;5089449;28;20464;-69
2023/09/25 00:56:05;;;;;;;2.92;2.13;;;;;;;15.00;61.59;102054.41;5088814;28;20028;-68
2023/09/25 00:58:31;;;;;;;3.05;2.28;;;;;;;14.96;61.75;102050.44;5089299;28;20811;-69
2023/09/25 01:00:57;;;;;;;3.97;2.30;;;;;;;14.95;61.74;102057.13;5089535;28;20028;-69
2023/09/25 01:03:22;;;;;;;3.00;1.88;;;;;;;14.95;61.32;102057.13;5089556;28;20089;-69
2023/09/25 01:05:48;;;;;;;3.85;1.88;;;;;;;14.95;61.26;102044.00;5090232;28;20035;-69
2023/09/25 01:08:13;;;;;;;3.00;2.30;;;;;;;14.90;61.65;102046.72;5097398;28;20023;-69
2023/09/25 01:10:40;;;;;;;2.40;2.00;;;;;;;14.88;61.82;102060.09;5109005;28;20421;-69
2023/09/25 01:13:06;;;;;;;5.50;2.20;;;;;;;14.86;61.67;102059.50;5109632;28;20039;-69
2023/09/25 01:15:31;;;;;;;3.28;2.30;;;;;;;14.90;61.43;102065.44;5109197;28;20375;-69
2023/09/25 01:17:57;;;;;;;3.08;2.03;;;;;;;14.85;61.31;102063.38;5109769;28;20386;-69
2023/09/25 01:20:24;;;;;;;4.65;2.15;;;;;;;14.89;60.58;102064.56;5091670;28;20036;-68
2023/09/25 01:22:50;;;;;;;3.10;2.38;;;;;;;14.80;60.59;102056.88;5089556;28;20044;-69
2023/09/25 01:25:19;;;;;;;3.33;2.08;;;;;;;14.79;60.69;102057.97;5086614;28;20024;-69
2023/09/25 01:27:47;;;;;;;3.88;2.40;;;;;;;14.74;61.09;102053.16;5107435;28;20081;-68
2023/09/25 01:30:17;;;;;;;3.10;2.20;;;;;;;14.79;60.42;102050.44;5108864;28;20106;-68
2023/09/25 01:32:44;;;;;;;4.35;2.47;;;;;;;14.77;60.39;102044.22;5101632;28;20510;-68
2023/09/25 01:35:14;;;;;;;2.30;1.90;;;;;;;14.78;60.79;102051.53;5092204;28;20028;-69
2023/09/25 01:37:43;;;;;;;2.63;2.20;;;;;;;14.80;60.74;102040.94;5088671;28;20052;-69
2023/09/25 01:40:16;;;;;;;3.33;2.35;;;;;;;14.72;61.30;102044.16;5089152;28;20056;-69
2023/09/25 01:42:43;;;;;;;3.78;2.63;;;;;;;14.75;60.92;102046.44;5095433;28;20050;-69
2023/09/25 01:45:09;;;;;;;4.40;2.47;;;;;;;14.73;61.36;102046.69;5088365;28;20524;-69
2023/09/25 01:47:37;;;;;;;3.33;2.17;;;;;;;14.70;60.70;102040.78;5090658;28;20489;-69
2023/09/25 01:50:03;;;;;;;4.32;2.30;;;;;;;14.75;60.97;102040.84;5095273;28;20107;-69
2023/09/25 01:52:29;;;;;;;3.13;2.00;;;;;;;14.72;61.18;102046.94;5100370;28;20047;-69
2023/09/25 01:54:55;;;;;;;3.58;2.17;;;;;;;14.70;60.71;102044.41;5113114;28;20035;-69
2023/09/25 01:57:21;;;;;;;4.03;2.38;;;;;;;14.72;61.32;102041.34;5105015;28;20482;-69
2023/09/25 01:59:46;;;;;;;3.85;2.15;;;;;;;14.68;61.33;102042.97;5101458;28;20072;-69
2023/09/25 02:02:12;;;;;;;3.50;1.90;;;;;;;14.67;61.55;102044.06;5112588;28;20063;-69
2023/09/25 02:04:37;;;;;;;4.63;2.03;;;;;;;14.63;61.39;102038.13;5112181;28;20063;-69
2023/09/25 02:07:03;;;;;;;5.10;2.40;;;;;;;14.65;61.57;102037.88;5112691;28;20423;-69
2023/09/25 02:09:28;;;;;;;4.47;2.45;;;;;;;14.60;60.81;102037.78;5112483;28;20027;-69
2023/09/25 02:11:53;;;;;;;4.72;2.40;;;;;;;14.57;60.50;102029.91;5109519;28;20390;-69
2023/09/25 02:14:18;;;;;;;3.20;1.98;;;;;;;14.60;61.28;102033.03;5091870;28;20048;-69
2023/09/25 02:16:44;;;;;;;5.00;2.47;;;;;;;14.62;60.88;102038.34;5094338;28;20135;-69
2023/09/25 02:19:11;;;;;;;3.08;2.20;;;;;;;14.61;60.85;102031.09;5107924;28;20028;-69
2023/09/25 02:21:37;;;;;;;4.22;2.20;;;;;;;14.59;60.63;102022.13;5112551;28;20473;-69
2023/09/25 02:24:02;;;;;;;4.38;2.42;;;;;;;14.54;60.78;102020.09;5103285;28;20105;-69
2023/09/25 02:26:28;;;;;;;3.80;2.28;;;;;;;14.52;60.79;102029.81;5111604;28;20032;-69
2023/09/25 02:28:53;;;;;;;4.30;2.15;;;;;;;14.50;61.17;102030.03;5096651;28;20059;-68
2023/09/25 02:31:18;;;;;;;6.28;2.80;;;;;;;14.48;60.93;102029.44;5095977;28;20554;-69
2023/09/25 02:33:44;;;;;;;3.92;2.35;;;;;;;14.49;61.32;102031.16;5110747;28;20055;-69
2023/09/25 02:36:09;;;;;;;3.72;2.25;;;;;;;14.45;61.26;102030.75;5112106;28;20019;-69
2023/09/25 02:38:35;;;;;;;5.07;2.40;;;;;;;14.49;60.76;102028.34;5110159;28;20070;-69
2023/09/25 02:41:00;;;;;;;3.50;2.20;;;;;;;14.49;61.40;102026.41;5091886;28;20043;-69
2023/09/25 02:43:28;;;;;;;3.17;2.30;;;;;;;14.49;61.59;102029.19;5091672;28;20035;-69
2023/09/25 02:45:54;;;;;;;3.90;2.40;;;;;;;14.39;61.62;102037.38;5091864;28;20074;-69
2023/09/25 02:48:21;;;;;;;4.10;2.17;;;;;;;14.40;61.60;102027.88;5090475;28;20059;-70
2023/09/25 02:50:47;;;;;;;5.28;2.45;;;;;;;14.46;61.49;102026.91;5091382;28;20028;-69
2023/09/25 02:53:12;;;;;;;6.10;2.65;;;;;;;14.40;61.49;102025.09;5090192;28;20035;-69
2023/09/25 02:55:37;;;;;;;3.53;2.40;;;;;;;14.36;61.43;102026.69;5090523;28;20392;-69
2023/09/25 02:58:03;;;;;;;2.58;2.30;;;;;;;14.37;61.81;102025.59;5108251;28;20108;-70
2023/09/25 03:00:28;;;;;;;4.05;2.50;;;;;;;14.36;61.69;102023.91;5100726;28;20328;-69
2023/09/25 03:02:54;;;;;;;3.85;2.45;;;;;;;14.40;61.20;102022.31;5090060;28;20082;-69
2023/09/25 03:05:19;;;;;;;2.88;2.30;;;;;;;14.37;60.94;102022.78;5090618;28;20028;-69
2023/09/25 03:07:45;;;;;;;4.07;2.90;;;;;;;14.35;60.78;102025.00;5099265;28;20055;-69
2023/09/25 03:10:10;;;;;;;3.30;2.35;;;;;;;14.31;60.72;102029.41;5109726;28;20164;-70
2023/09/25 03:12:36;;;;;;;3.70;2.33;;;;;;;14.35;60.63;102033.38;5108026;28;20035;-70
2023/09/25 03:15:04;;;;;;;3.38;2.35;;;;;;;14.36;61.05;102032.28;5109521;28;20032;-70
2023/09/25 03:17:30;;;;;;;5.85;2.58;;;;;;;14.31;60.13;102034.97;5093393;28;20032;-69
2023/09/25 03:19:56;;;;;;;6.20;2.70;;;;;;;14.26;60.10;102026.47;5090201;28;20028;-70
2023/09/25 03:22:21;;;;;;;5.28;2.17;;;;;;;14.35;60.17;102026.97;5094197;28;20043;-69
2023/09/25 03:24:48;;;;;;;4.15;2.60;;;;;;;14.27;60.20;102024.56;5097331;28;20061;-70
2023/09/25 03:27:16;;;;;;;2.92;2.50;;;;;;;14.29;59.66;102025.16;5102846;28;20080;-69
2023/09/25 03:29:42;;;;;;;4.20;2.45;;;;;;;14.34;59.39;102028.88;5105007;28;20463;-69
2023/09/25 03:32:08;;;;;;;4.68;2.50;;;;;;;14.28;59.89;102029.88;5110802;28;20039;-70
2023/09/25 03:34:33;;;;;;;4.10;2.30;;;;;;;14.28;59.66;102029.03;5110430;28;20035;-69
2023/09/25 03:36:58;;;;;;;4.45;2.40;;;;;;;14.28;59.92;102029.88;5100159;28;20059;-69
2023/09/25 03:39:24;;;;;;;4.45;2.58;;;;;;;14.32;59.55;102022.69;5101208;28;20074;-69
2023/09/25 03:41:49;;;;;;;6.00;2.63;;;;;;;14.30;59.78;102013.72;5101468;28;20035;-70
2023/09/25 03:44:14;;;;;;;3.97;2.53;;;;;;;14.28;60.00;102024.31;5089149;28;20035;-69
2023/09/25 03:46:40;;;;;;;3.38;2.55;;;;;;;14.32;59.53;102019.06;5090997;28;20032;-69
2023/09/25 03:49:08;;;;;;;5.47;2.95;;;;;;;14.31;59.55;102021.00;5089890;28;20039;-69
2023/09/25 03:51:33;;;;;;;3.72;2.55;;;;;;;14.33;59.27;102024.38;5090818;28;20429;-69
2023/09/25 03:54:02;;;;;;;4.20;2.70;;;;;;;14.33;59.54;102024.38;5090350;28;20020;-69
2023/09/25 03:56:29;;;;;;;4.50;2.50;;;;;;;14.35;59.27;102024.16;5090027;28;20035;-69
2023/09/25 03:59:06;;;;;;;5.93;2.80;;;;;;;14.33;59.39;102031.94;5090016;28;20036;-69
2023/09/25 04:01:32;;;;;;;7.57;3.00;;;;;;;14.29;59.50;102031.56;5094414;28;20513;-69
2023/09/25 04:03:57;;;;;;;3.72;2.55;;;;;;;14.28;59.39;102031.84;5108876;28;20066;-69
2023/09/25 04:06:22;;;;;;;5.57;2.85;;;;;;;14.30;59.87;102026.84;5098078;28;20028;-69
2023/09/25 04:08:48;;;;;;;3.30;2.30;;;;;;;14.28;59.80;102032.69;5089999;28;20103;-70
2023/09/25 04:11:14;;;;;;;6.18;2.58;;;;;;;14.28;59.48;102037.41;5087963;28;20196;-70
2023/09/25 04:13:43;;;;;;;3.67;2.60;;;;;;;14.23;59.49;102039.00;5090054;28;20027;-70
2023/09/25 04:16:12;;;;;;;4.30;2.58;;;;;;;14.27;59.32;102044.13;5088846;28;20073;-70
2023/09/25 04:18:38;;;;;;;4.32;2.72;;;;;;;14.30;59.26;102038.00;5102004;28;20058;-70
2023/09/25 04:21:05;;;;;;;3.58;2.30;;;;;;;14.24;59.27;102045.44;5110272;28;20527;-70
2023/09/25 04:23:31;;;;;;;4.10;2.60;;;;;;;14.21;59.67;102037.56;5108279;28;20087;-70
2023/09/25 04:26:00;;;;;;;4.85;2.50;;;;;;;14.26;59.37;102037.66;5109371;28;20028;-70
2023/09/25 04:28:32;;;;;;;4.85;2.42;;;;;;;14.23;59.50;102039.00;5091440;28;20483;-70
2023/09/25 04:30:58;;;;;;;3.72;2.65;;;;;;;14.22;59.49;102036.44;5089424;28;20025;-69
2023/09/25 04:33:24;;;;;;;5.80;2.80;;;;;;;14.21;59.28;102041.19;5089076;28;20028;-70
2023/09/25 04:35:52;;;;;;;3.95;2.70;;;;;;;14.23;59.49;102039.00;5097089;28;20024;-70
2023/09/25 04:38:17;;;;;;;3.33;2.47;;;;;;;14.24;59.41;102045.44;5109923;28;20020;-70
2023/09/25 04:40:46;;;;;;;4.72;2.22;;;;;;;14.21;59.39;102040.34;5102504;28;20032;-70
2023/09/25 04:43:11;;;;;;;5.60;2.65;;;;;;;14.17;59.03;102050.31;5102219;28;20455;-70
2023/09/25 04:45:36;;;;;;;4.85;2.40;;;;;;;14.11;59.60;102049.38;5090283;28;20111;-70
2023/09/25 04:48:03;;;;;;;4.22;2.70;;;;;;;14.15;59.33;102047.78;5088794;28;20383;-70
2023/09/25 04:50:28;;;;;;;5.32;2.78;;;;;;;14.11;59.70;102045.72;5098321;28;20238;-70
2023/09/25 04:52:53;;;;;;;5.85;2.65;;;;;;;14.12;58.99;102050.22;5089665;28;20497;-70
2023/09/25 04:55:19;;;;;;;3.45;2.53;;;;;;;14.09;59.90;102045.13;5088673;28;20071;-70
2023/09/25 04:57:48;;;;;;;9.30;3.20;;;;;;;14.12;59.48;102044.66;5089552;28;20031;-70
2023/09/25 05:00:21;;;;;;;6.25;3.10;;;;;;;14.07;59.42;102050.09;5106333;28;20402;-70
2023/09/25 05:02:48;;;;;;;4.00;2.83;;;;;;;14.08;59.41;102040.66;5094369;28;20022;-70
2023/09/25 05:05:14;;;;;;;3.75;2.53;;;;;;;14.08;59.68;102049.03;5088733;28;20545;-70
2023/09/25 05:07:41;;;;;;;3.78;2.90;;;;;;;14.08;59.59;102046.22;5089328;28;20024;-70
2023/09/25 05:10:09;;;;;;;5.05;2.70;;;;;;;14.00;59.74;102055.84;5089544;28;20039;-70
2023/09/25 05:12:44;;;;;;;3.50;2.58;;;;;;;14.05;59.50;102046.72;5089070;28;20066;-70
2023/09/25 05:15:17;;;;;;;6.30;3.10;;;;;;;13.99;60.21;102055.00;5088677;28;20036;-70
2023/09/25 05:17:44;;;;;;;4.28;2.63;;;;;;;14.03;59.74;102043.31;5090462;28;20066;-70
2023/09/25 05:20:12;;;;;;;4.72;2.72;;;;;;;14.07;59.61;102052.88;5089663;28;20549;-70
2023/09/25 05:22:41;;;;;;;3.42;2.60;;;;;;;14.06;59.71;102052.03;5093818;28;20044;-70
2023/09/25 05:25:09;;;;;;;4.28;2.55;;;;;;;14.04;59.40;102064.56;5092799;28;20032;-71
2023/09/25 05:27:35;;;;;;;5.10;2.85;;;;;;;14.00;59.71;102067.84;5092682;28;20094;-70
2023/09/25 05:30:02;;;;;;;2.97;2.30;;;;;;;13.99;59.75;102060.59;5092330;28;20024;-70
2023/09/25 05:32:27;;;;;;;4.78;2.90;;;;;;;14.03;59.30;102055.34;5092682;28;20363;-70
2023/09/25 05:34:54;;;;;;;4.40;2.60;;;;;;;13.99;59.74;102056.94;5092495;28;20085;-70
2023/09/25 05:37:19;;;;;;;6.78;2.63;;;;;;;14.04;60.01;102059.84;5093180;28;20536;-71
2023/09/25 05:39:45;;;;;;;4.97;2.80;;;;;;;14.00;59.58;102070.66;5092479;28;20252;-70
2023/09/25 05:42:10;;;;;;;3.03;2.38;;;;;;;13.96;59.58;102069.44;5092463;28;20027;-70
2023/09/25 05:44:35;;;;;;;3.58;2.40;;;;;;;13.94;59.65;102068.81;5091935;28;20040;-69
2023/09/25 05:47:01;;;;;;;3.20;2.40;;;;;;;13.95;59.62;102061.28;5100117;28;20437;-70
2023/09/25 05:49:26;;;;;;;5.22;2.97;;;;;;;13.95;59.54;102059.38;5097113;28;20047;-69
2023/09/25 05:51:53;;;;;;;4.97;2.65;;;;;;;13.95;59.36;102069.66;5091872;28;20074;-70
2023/09/25 05:54:22;;;;;;;4.30;2.58;;;;;;;13.98;59.70;102072.81;5097309;28;20031;-70
2023/09/25 05:56:48;;;;;;;4.15;2.83;;;;;;;13.94;59.72;102063.25;5111263;28;20035;-69
2023/09/25 05:59:14;;;;;;;5.43;3.03;;;;;;;14.01;59.00;102065.91;5106357;28;20101;-69
2023/09/25 06:01:39;;;;;;;3.17;2.53;;;;;;;14.01;59.16;102071.50;5092486;28;20032;-69
2023/09/25 06:04:05;;;;;;;4.03;2.58;;;;;;;14.00;59.20;102070.66;5091334;28;20508;-69
2023/09/25 06:06:31;;;;;;;4.15;2.85;;;;;;;14.05;59.13;102083.00;5092382;28;20036;-69
2023/09/25 06:08:56;;;;;;;4.38;2.95;;;;;;;14.07;59.17;102072.44;5092097;28;20052;-69
2023/09/25 06:11:22;;;;;;;6.50;2.83;;;;;;;14.13;58.87;102077.03;5091270;28;20048;-69
2023/09/25 06:13:48;;;;;;;9.48;2.72;;;;;;;14.16;59.39;102076.56;5096644;28;20081;-69
2023/09/25 06:16:13;;;;;;;6.22;3.00;;;;;;;14.11;59.36;102077.31;5110616;28;20081;-69
2023/09/25 06:18:40;;;;;;;4.47;3.00;;;;;;;14.11;59.59;102068.06;5100330;28;20028;-69
2023/09/25 06:21:08;;;;;;;5.75;2.90;;;;;;;14.09;59.36;102075.84;5093542;28;20023;-68
2023/09/25 06:23:33;;;;;;;5.28;3.05;;;;;;;14.16;59.53;102068.19;5095519;28;20052;-69
2023/09/25 06:25:58;;;;;;;4.28;2.83;;;;;;;14.13;59.49;102074.25;5087162;28;20138;-69
2023/09/25 06:28:25;;;;;;;4.85;2.40;;;;;;;14.18;59.00;102085.50;5092682;28;20024;-69
2023/09/25 06:30:50;;;;;;;5.20;2.72;;;;;;;14.14;59.55;102078.72;5091166;28;20059;-68
2023/09/25 06:33:15;;;;;;;3.88;2.72;;;;;;;14.19;59.12;102068.53;5097679;28;20106;-68
2023/09/25 06:35:42;;;;;;;5.47;2.83;;;;;;;14.19;59.12;102078.84;5106721;28;20369;-71
2023/09/25 06:38:08;;;;;;;6.15;3.17;;;;;;;14.22;59.01;102076.41;5096957;28;20024;-71
2023/09/25 06:40:34;;;;;;;4.97;2.70;;;;;;;14.20;59.20;102081.41;5089983;28;20528;-69
2023/09/25 06:42:59;;;;;;;3.30;2.60;;;;;;;14.16;59.37;102082.13;5100427;28;20042;-68
2023/09/25 06:45:28;;;;;;;4.85;3.00;;;;;;;14.14;59.33;102082.38;5089789;28;20024;-70
2023/09/25 06:47:53;;;;;;;6.97;2.75;;;;;;;14.13;59.63;102083.47;5089487;28;20031;-68
2023/09/25 06:50:18;;;;;;;3.55;2.63;;;;;;;14.20;59.00;102086.97;5097452;28;20028;-69
2023/09/25 06:52:44;;;;;;;4.32;2.72;;;;;;;14.19;59.51;102085.28;5097367;28;20394;-64
2023/09/25 06:55:12;;;;;;;8.80;2.88;;;;;;;14.25;59.47;102097.41;5089482;28;20514;-70
2023/09/25 06:57:37;;;;;;;8.32;3.28;;;;;;;14.26;59.36;102087.91;5109146;28;20030;-69
2023/09/25 07:00:03;;;;;;;14.32;3.40;;;;;;;14.28;60.00;102085.75;5104937;28;20134;-69
2023/09/25 07:02:31;;;;;;;6.63;3.03;;;;;;;14.31;59.53;102085.25;5093461;28;20135;-69
2023/09/25 07:04:58;;;;;;;5.25;2.70;;;;;;;14.35;59.27;102082.81;5100469;28;20036;-75
2023/09/25 07:07:47;;;;;;;4.75;2.58;;;;;;;14.36;59.16;102082.56;5095351;28;20024;-67
2023/09/25 07:10:15;;;;;;;5.40;2.50;;;;;;;14.39;59.27;102082.06;5101899;28;20464;-71
2023/09/25 07:12:40;;;;;;;5.93;2.53;;;;;;;14.37;59.40;102080.59;5091120;28;20040;-71
2023/09/25 07:15:06;;;;;;;4.93;2.67;;;;;;;14.42;59.30;102083.50;5095820;28;20028;-71
2023/09/25 07:17:32;;;;;;;4.78;2.75;;;;;;;14.46;58.96;102082.78;5096119;28;20421;-70
2023/09/25 07:19:57;;;;;;;5.28;2.47;;;;;;;14.51;58.74;102079.25;5089034;28;20066;-72
2023/09/25 07:22:24;;;;;;;6.18;2.85;;;;;;;14.55;58.86;102079.59;5106444;28;20070;-70
2023/09/25 07:24:50;;;;;;;3.30;2.63;;;;;;;14.59;58.98;102084.44;5110376;28;20509;-64
2023/09/25 07:27:16;;;;;;;5.72;2.60;;;;;;;14.65;59.03;102085.38;5106666;28;20122;-72
2023/09/25 07:29:42;;;;;;;3.78;2.47;;;;;;;14.71;58.54;102084.38;5109718;28;20028;-70
2023/09/25 07:32:08;;;;;;;4.90;2.60;;;;;;;14.75;58.63;102071.59;5108875;28;20034;-70
2023/09/25 07:34:33;;;;;;;3.00;2.20;;;;;;;14.82;58.40;102086.28;5095928;28;20534;-70
2023/09/25 07:37:00;;;;;;;6.38;2.45;;;;;;;14.91;58.39;102081.94;5091850;28;20074;-68
2023/09/25 07:39:26;;;;;;;2.97;2.20;;;;;;;15.01;57.97;102077.63;5097028;28;20836;-64
2023/09/25 07:41:52;;;;;;;3.65;2.40;;;;;;;15.05;57.84;102082.50;5096784;28;20035;-73
2023/09/25 07:44:18;;;;;;;3.40;2.42;;;;;;;15.14;57.51;102083.75;5109096;28;20058;-73
2023/09/25 07:46:44;;;;;;;3.47;2.13;;;;;;;15.18;57.26;102084.94;5100055;28;20448;-74
2023/09/25 07:49:10;;;;;;;4.60;1.73;;;;;;;15.28;56.95;102083.41;5089085;28;20431;-72
2023/09/25 07:51:36;;;;;;;6.30;2.42;;;;;;;15.35;57.04;102078.50;5090404;28;20039;-72
2023/09/25 07:54:03;;;;;;;4.70;2.33;;;;;;;15.40;56.37;102073.81;5088148;28;20043;-74
2023/09/25 07:56:29;;;;;;;3.28;2.03;;;;;;;15.50;56.89;102083.47;5089220;28;20030;-74
2023/09/25 07:58:55;;;;;;;4.57;2.20;;;;;;;15.56;56.61;102074.91;5090345;28;20032;-73
2023/09/25 08:01:22;;;;;;;3.67;2.20;;;;;;;15.66;56.72;102085.44;5088966;28;20020;-72
2023/09/25 08:03:51;;;;;;;7.20;2.00;;;;;;;15.67;55.80;102076.78;5089441;28;20571;-73
2023/09/25 08:06:18;;;;;;;3.30;2.10;;;;;;;15.71;55.60;102074.31;5089346;28;20088;-72
2023/09/25 08:08:45;;;;;;;4.13;2.30;;;;;;;15.74;55.04;102093.41;5091961;28;20484;-72
2023/09/25 08:11:14;;;;;;;3.40;2.17;;;;;;;15.75;55.48;102083.88;5098698;28;20027;-72
2023/09/25 08:13:40;;;;;;;3.45;1.95;;;;;;;15.76;55.74;102085.59;5101458;28;20467;-69
2023/09/25 08:16:05;;;;;;;2.60;2.20;;;;;;;15.81;55.40;102080.06;5089374;28;20026;-70
2023/09/25 08:18:31;;;;;;;3.70;2.33;;;;;;;15.84;55.58;102082.34;5088247;28;20043;-70
2023/09/25 08:20:56;;;;;;;2.72;2.28;;;;;;;15.91;55.48;102082.13;5094793;28;20066;-71
2023/09/25 08:23:21;;;;;;;3.97;2.00;;;;;;;16.00;56.37;102088.16;5108489;28;20040;-70
2023/09/25 08:25:47;;;;;;;4.28;2.17;;;;;;;16.05;55.17;102088.22;5089954;28;20039;-72
2023/09/25 08:28:14;;;;;;;3.78;2.40;;;;;;;16.05;54.98;102082.63;5088673;28;20020;-72
2023/09/25 08:30:40;;;;;;;4.85;2.42;;;;;;;16.09;55.00;102079.03;5089315;28;20024;-70
2023/09/25 08:33:05;;;;;;;4.28;2.38;;;;;;;16.15;55.89;102072.41;5086151;28;20036;-71
2023/09/25 08:35:30;;;;;;;4.07;2.15;;;;;;;16.22;55.24;102072.19;5089452;28;20107;-70
2023/09/25 08:37:56;;;;;;;5.43;2.15;;;;;;;16.38;56.06;102065.66;5087743;28;20088;-72
2023/09/25 08:40:24;;;;;;;3.58;1.92;;;;;;;16.49;55.41;102066.63;5094989;28;20032;-73
2023/09/25 08:42:51;;;;;;;4.40;2.13;;;;;;;16.59;55.45;102075.16;5107430;28;20020;-72
2023/09/25 08:45:20;;;;;;;2.95;2.10;;;;;;;16.64;54.74;102058.38;5088647;28;20375;-73
2023/09/25 08:47:46;;;;;;;5.13;2.53;;;;;;;16.78;54.96;102064.44;5103444;28;20020;-69
2023/09/25 08:50:12;;;;;;;6.15;2.63;;;;;;;16.78;54.92;102058.84;5104686;28;20038;-67
2023/09/25 08:52:39;;;;;;;4.22;2.50;;;;;;;16.81;54.51;102057.44;5102546;28;20149;-64
2023/09/25 08:55:06;;;;;;;3.67;2.50;;;;;;;16.89;54.72;102055.00;5109013;28;20394;-70
2023/09/25 08:57:32;;;;;;;5.72;2.30;;;;;;;16.97;57.20;102055.63;5102902;28;20031;-67
2023/09/25 09:00:01;;;;;;;4.05;2.22;;;;;;;17.06;55.01;102054.03;5091778;28;20036;-67
2023/09/25 09:02:28;;;;;;;4.38;2.63;;;;;;;17.13;54.63;102057.44;5091598;28;20052;-68
2023/09/25 09:04:53;;;;;;;4.07;2.17;;;;;;;17.31;55.26;102054.25;5093313;28;20090;-68
2023/09/25 09:07:19;;;;;;;4.15;2.42;;;;;;;17.36;54.21;102064.66;5090984;28;20487;-68
2023/09/25 09:09:44;;;;;;;3.08;2.33;;;;;;;17.35;53.95;102052.56;5092570;28;20035;-68
2023/09/25 09:12:10;;;;;;;4.32;2.28;;;;;;;17.39;53.21;102064.13;5092004;28;20540;-68
2023/09/25 09:14:42;;;;;;;7.13;2.40;;;;;;;17.42;53.33;102064.44;5091964;28;20153;-68
2023/09/25 09:17:09;;;;;;;3.53;2.65;;;;;;;17.47;54.00;102057.16;5091933;28;20043;-68
2023/09/25 09:19:52;;;;;;;4.10;2.20;;;;;;;17.46;53.71;102058.28;5097622;28;20081;-62
2023/09/25 09:22:19;;;;;;;5.47;2.42;;;;;;;17.51;54.02;102056.34;5094036;28;20074;-66
2023/09/25 09:24:45;;;;;;;4.10;2.30;;;;;;;17.56;54.63;102055.53;5091680;28;20040;-67
2023/09/25 09:27:14;;;;;;;6.65;2.38;;;;;;;17.54;54.48;102054.97;5090637;28;20016;-67
2023/09/25 09:29:42;;;;;;;3.63;2.03;;;;;;;17.52;54.56;102058.03;5091189;28;20115;-66
2023/09/25 09:32:08;;;;;;;5.70;2.28;;;;;;;17.48;54.00;102061.63;5107693;28;20063;-67
2023/09/25 09:34:34;;;;;;;4.07;1.92;;;;;;;17.41;54.04;102059.09;5095147;28;20055;-67
2023/09/25 09:37:00;;;;;;;4.57;2.13;;;;;;;17.43;54.62;102060.50;5091642;28;20040;-70
2023/09/25 09:39:25;;;;;;;3.67;2.10;;;;;;;17.45;54.73;102053.75;5092822;28;20517;-70
2023/09/25 09:41:52;;;;;;;3.70;2.30;;;;;;;17.55;54.84;102062.25;5091623;28;20052;-67
2023/09/25 09:44:19;;;;;;;4.35;2.15;;;;;;;17.60;54.68;102063.13;5099085;28;20066;-66
2023/09/25 09:46:50;;;;;;;3.78;2.03;;;;;;;17.69;54.53;102057.88;5103850;28;20142;-67
2023/09/25 09:49:20;;;;;;;4.80;2.17;;;;;;;17.72;54.28;102062.06;5098574;28;20127;-66
2023/09/25 09:51:48;;;;;;;4.22;2.20;;;;;;;17.73;54.80;102060.97;5092653;28;20075;-63
2023/09/25 09:54:16;;;;;;;6.72;2.25;;;;;;;17.79;54.83;102068.34;5092604;28;20035;-63
2023/09/25 09:56:42;;;;;;;4.82;2.33;;;;;;;17.86;55.26;102066.13;5095288;28;20071;-66
2023/09/25 09:59:07;;;;;;;4.03;2.17;;;;;;;17.92;55.72;102073.47;5094449;28;20113;-67
2023/09/25 10:01:33;;;;;;;3.20;2.00;;;;;;;17.95;55.15;102072.06;5094563;28;20059;-68
2023/09/25 10:04:01;;;;;;;3.17;1.88;;;;;;;17.99;54.77;102073.22;5098464;28;20119;-68
2023/09/25 10:06:31;;;;;;;4.45;2.13;;;;;;;18.07;55.25;102072.69;5095851;28;20066;-67
2023/09/25 10:09:10;;;;;;;3.05;2.00;;;;;;;18.13;55.59;102075.25;5092523;28;20023;-66
2023/09/25 10:11:35;;;;;;;3.08;1.92;;;;;;;18.20;54.89;102066.59;5085276;28;20489;-68
2023/09/25 10:14:07;;;;;;;4.50;2.10;;;;;;;18.26;55.01;102067.44;5094178;28;20020;-66
2023/09/25 10:16:55;;;;;;;5.60;2.08;;;;;;;18.28;55.03;102074.47;5088829;28;20785;-66
2023/09/25 10:19:21;;;;;;;4.65;2.03;;;;;;;18.28;54.68;102065.22;5093924;28;20038;-65
2023/09/25 10:22:05;;;;;;;5.00;2.25;;;;;;;18.34;55.11;102061.28;5091913;28;20028;-66
2023/09/25 10:24:30;;;;;;;4.88;1.90;;;;;;;18.39;54.24;102062.16;5087659;28;20440;-66
2023/09/25 10:26:56;;;;;;;2.72;1.60;;;;;;;18.44;54.57;102061.31;5090113;28;20032;-65
2023/09/25 10:29:22;;;;;;;3.05;1.77;;;;;;;18.52;54.07;102060.78;5095025;28;20076;-66
2023/09/25 10:31:48;;;;;;;4.32;1.80;;;;;;;18.55;54.22;102063.03;5092859;28;20020;-65
2023/09/25 10:34:14;;;;;;;4.40;1.73;;;;;;;18.56;53.45;102067.53;5096046;28;20020;-65
2023/09/25 10:36:44;;;;;;;2.45;1.80;;;;;;;18.67;53.91;102068.41;5100584;28;20027;-66
2023/09/25 10:39:14;;;;;;;2.38;1.63;;;;;;;18.69;53.14;102068.97;5087302;28;20502;-67
2023/09/25 10:41:41;;;;;;;3.03;1.70;;;;;;;18.73;53.34;102064.50;5093049;28;20129;-67
2023/09/25 10:44:09;;;;;;;4.32;1.75;;;;;;;18.76;54.05;102065.91;5093969;28;20032;-67
2023/09/25 10:46:35;;;;;;;3.42;1.73;;;;;;;18.81;53.63;102057.47;5101934;28;20023;-66
2023/09/25 10:49:05;;;;;;;7.45;1.80;;;;;;;18.88;52.67;102052.44;5094139;28;20223;-65
2023/09/25 10:51:31;;;;;;;3.53;1.65;;;;;;;18.96;53.40;102054.69;5097251;28;20024;-66
2023/09/25 10:53:56;;;;;;;3.25;1.52;;;;;;;18.96;52.91;102056.66;5095677;28;20034;-66
2023/09/25 10:56:23;;;;;;;3.97;1.75;;;;;;;18.99;52.70;102054.13;5102529;28;20141;-66
2023/09/25 10:58:52;;;;;;;4.57;1.90;;;;;;;18.98;52.44;102054.38;5090390;28;20032;-65
2023/09/25 11:01:44;;;;;;;4.50;1.65;;;;;;;19.02;52.25;102053.56;5091791;28;20713;-65
2023/09/25 11:04:09;;;;;;;2.42;1.50;;;;;;;19.08;53.18;102055.25;5093373;28;20767;-67
2023/09/25 11:06:37;;;;;;;3.30;1.80;;;;;;;19.15;52.70;102062.56;5092996;28;20027;-67
2023/09/25 11:09:11;;;;;;;2.28;1.48;;;;;;;19.17;53.01;102068.75;5097624;28;20050;-67
2023/09/25 11:11:39;;;;;;;3.80;1.92;;;;;;;19.24;53.34;102072.13;5096405;28;20024;-66
2023/09/25 11:14:04;;;;;;;5.65;1.67;;;;;;;19.22;53.08;102072.44;5104604;28;20024;-66
2023/09/25 11:16:29;;;;;;;3.72;1.95;;;;;;;19.32;53.65;102069.59;5095232;28;20990;-67
2023/09/25 11:19:11;;;;;;;5.40;1.67;;;;;;;19.36;53.39;102070.72;5089823;28;20024;-67
2023/09/25 11:21:39;;;;;;;4.05;1.92;;;;;;;19.45;52.96;102072.94;5085805;28;20099;-64